createdAt,value
2017-12-10T00:01:51.801Z,-1.58
2017-12-10T00:04:20.772Z,-1.61
2017-12-10T00:06:52.766Z,-1.58
2017-12-10T00:09:20.918Z,-1.58
2017-12-10T00:11:48.729Z,-1.58
2017-12-10T00:14:16.426Z,-1.55
2017-12-10T00:16:44.260Z,-1.54
2017-12-10T00:19:13.784Z,-1.54
2017-12-10T00:21:44.158Z,-1.54
2017-12-10T00:24:12.159Z,-1.57
2017-12-10T00:26:39.966Z,-1.59
2017-12-10T00:29:09.610Z,-1.62
2017-12-10T00:31:37.319Z,-1.65
2017-12-10T00:34:05.023Z,-1.66
2017-12-10T00:36:34.564Z,-1.67
2017-12-10T00:39:02.330Z,-1.70
2017-12-10T00:41:30.010Z,-1.68
2017-12-10T00:43:57.682Z,-1.69
2017-12-10T00:46:27.325Z,-1.71
2017-12-10T00:48:57.103Z,-1.73
2017-12-10T00:51:24.907Z,-1.73
2017-12-10T00:53:52.605Z,-1.74
2017-12-10T00:56:20.287Z,-1.76
2017-12-10T00:58:47.950Z,-1.83
2017-12-10T01:01:17.377Z,-1.90
2017-12-10T01:03:45.830Z,-1.94
2017-12-10T01:06:16.163Z,-1.98
2017-12-10T01:08:43.894Z,-1.95
2017-12-10T01:11:13.378Z,-1.95
2017-12-10T01:13:41.181Z,-1.98
2017-12-10T01:16:10.789Z,-1.97
2017-12-10T01:18:39.380Z,-1.97
2017-12-10T01:21:08.814Z,-1.99
2017-12-10T01:23:39.138Z,-1.98
2017-12-10T01:26:06.963Z,-1.97
2017-12-10T01:28:34.608Z,-1.99
2017-12-10T01:31:02.376Z,-1.99
2017-12-10T01:33:32.392Z,-2.00
2017-12-10T01:36:00.363Z,-2.00
2017-12-10T01:38:29.280Z,-1.98
2017-12-10T01:40:57.498Z,-1.98
2017-12-10T01:43:25.362Z,-1.98
2017-12-10T01:45:54.872Z,-1.97
2017-12-10T01:48:23.784Z,-1.98
2017-12-10T01:50:51.442Z,-1.98
2017-12-10T01:53:20.927Z,-1.98
2017-12-10T01:55:50.945Z,-2.01
2017-12-10T01:58:19.679Z,-2.03
2017-12-10T02:00:49.141Z,-2.01
2017-12-10T02:03:17.011Z,-2.04
2017-12-10T02:05:44.865Z,-2.07
2017-12-10T02:08:14.273Z,-2.11
2017-12-10T02:10:44.511Z,-2.14
2017-12-10T02:13:12.929Z,-2.19
2017-12-10T02:15:44.099Z,-2.22
2017-12-10T02:18:12.805Z,-2.19
2017-12-10T02:20:42.286Z,-2.19
2017-12-10T02:23:09.986Z,-2.21
2017-12-10T02:25:39.429Z,-2.21
2017-12-10T02:28:07.119Z,-2.21
2017-12-10T02:30:37.279Z,-2.22
2017-12-10T02:33:04.926Z,-2.25
2017-12-10T02:35:34.323Z,-2.25
2017-12-10T02:38:02.057Z,-2.23
2017-12-10T02:40:30.013Z,-2.22
2017-12-10T02:43:00.840Z,-2.22
2017-12-10T02:45:29.758Z,-2.23
2017-12-10T02:47:57.493Z,-2.27
2017-12-10T02:50:25.163Z,-2.30
2017-12-10T02:52:52.929Z,-2.34
2017-12-10T02:55:20.892Z,-2.37
2017-12-10T02:57:51.751Z,-2.38
2017-12-10T03:00:22.289Z,-2.38
2017-12-10T03:02:50.990Z,-2.34
2017-12-10T03:05:20.296Z,-2.32
2017-12-10T03:07:48.886Z,-2.35
2017-12-10T03:10:16.750Z,-2.38
2017-12-10T03:12:46.459Z,-2.40
2017-12-10T03:15:15.131Z,-2.39
2017-12-10T03:17:44.915Z,-2.40
2017-12-10T03:20:12.590Z,-2.40
2017-12-10T03:22:40.345Z,-2.40
2017-12-10T03:25:08.879Z,-2.44
2017-12-10T03:27:37.409Z,-2.47
2017-12-10T03:30:05.921Z,-2.51
2017-12-10T03:32:35.490Z,-2.50
2017-12-10T03:35:03.205Z,-2.49
2017-12-10T03:37:31.590Z,-2.50
2017-12-10T03:40:01.025Z,-2.54
2017-12-10T03:42:31.927Z,-2.57
2017-12-10T03:45:01.497Z,-2.59
2017-12-10T03:47:31.155Z,-2.61
2017-12-10T03:49:58.850Z,-2.63
2017-12-10T03:52:28.427Z,-2.67
2017-12-10T03:54:59.107Z,-2.64
2017-12-10T03:57:30.548Z,-2.71
2017-12-10T03:59:58.433Z,-2.72
2017-12-10T04:02:26.631Z,-2.73
2017-12-10T04:04:54.931Z,-2.72
2017-12-10T04:07:24.573Z,-2.73
2017-12-10T04:09:54.983Z,-2.74
2017-12-10T04:12:22.931Z,-2.73
2017-12-10T04:14:51.392Z,-2.72
2017-12-10T04:17:19.080Z,-2.75
2017-12-10T04:19:48.593Z,-2.77
2017-12-10T04:22:18.053Z,-2.81
2017-12-10T04:24:45.997Z,-2.85
2017-12-10T04:27:15.504Z,-2.89
2017-12-10T04:29:44.945Z,-2.91
2017-12-10T04:32:12.940Z,-2.97
2017-12-10T04:34:41.449Z,-3.04
2017-12-10T04:37:09.304Z,-3.10
2017-12-10T04:39:37.211Z,-3.16
2017-12-10T04:42:05.115Z,-3.19
2017-12-10T04:44:33.705Z,-3.19
2017-12-10T04:47:01.501Z,-3.25
2017-12-10T04:49:31.906Z,-3.24
2017-12-10T04:52:02.280Z,-3.23
2017-12-10T04:54:30.010Z,-3.23
2017-12-10T04:56:59.062Z,-3.24
2017-12-10T04:59:29.535Z,-3.29
2017-12-10T05:01:57.312Z,-3.27
2017-12-10T05:04:26.752Z,-3.26
2017-12-10T05:06:54.588Z,-3.26
2017-12-10T05:09:22.440Z,-3.27
2017-12-10T05:11:52.015Z,-3.35
2017-12-10T05:14:24.645Z,-3.35
2017-12-10T05:16:52.424Z,-3.35
2017-12-10T05:19:20.112Z,-3.40
2017-12-10T05:21:50.639Z,-3.42
2017-12-10T05:24:18.583Z,-3.45
2017-12-10T05:26:47.095Z,-3.45
2017-12-10T05:29:14.954Z,-3.48
2017-12-10T05:31:42.623Z,-3.48
2017-12-10T05:34:10.321Z,-3.47
2017-12-10T05:36:38.168Z,-3.44
2017-12-10T05:39:05.932Z,-3.40
2017-12-10T05:41:33.874Z,-3.39
2017-12-10T05:44:06.951Z,-3.42
2017-12-10T05:46:36.443Z,-3.39
2017-12-10T05:49:04.150Z,-3.42
2017-12-10T05:51:33.672Z,-3.38
2017-12-10T05:54:01.352Z,-3.35
2017-12-10T05:56:30.016Z,-3.35
2017-12-10T05:58:57.747Z,-3.33
2017-12-10T06:01:28.375Z,-3.36
2017-12-10T06:03:56.050Z,-3.43
2017-12-10T06:06:23.733Z,-3.44
2017-12-10T06:08:51.389Z,-3.45
2017-12-10T06:11:20.873Z,-3.46
2017-12-10T06:13:48.692Z,-3.46
2017-12-10T06:16:16.402Z,-3.47
2017-12-10T06:18:44.093Z,-3.51
2017-12-10T06:21:14.507Z,-3.52
2017-12-10T06:23:45.604Z,-3.54
2017-12-10T06:26:13.274Z,-3.54
2017-12-10T06:28:41.280Z,-3.58
2017-12-10T06:31:12.004Z,-3.65
2017-12-10T06:33:39.762Z,-3.66
2017-12-10T06:36:07.503Z,-3.67
2017-12-10T06:38:35.190Z,-3.66
2017-12-10T06:41:03.020Z,-3.66
2017-12-10T06:43:32.262Z,-3.65
2017-12-10T06:46:00.624Z,-3.66
2017-12-10T06:48:30.102Z,-3.65
2017-12-10T06:50:59.717Z,-3.66
2017-12-10T06:53:28.181Z,-3.67
2017-12-10T06:55:58.502Z,-3.72
2017-12-10T06:58:26.230Z,-3.74
2017-12-10T07:00:56.489Z,-3.81
2017-12-10T07:03:25.946Z,-3.77
2017-12-10T07:05:55.350Z,-3.79
2017-12-10T07:08:23.108Z,-3.80
2017-12-10T07:10:52.542Z,-3.82
2017-12-10T07:13:20.396Z,-3.81
2017-12-10T07:15:49.281Z,-3.79
2017-12-10T07:18:17.887Z,-3.79
2017-12-10T07:20:47.311Z,-3.78
2017-12-10T07:23:17.826Z,-3.75
2017-12-10T07:25:45.634Z,-3.76
2017-12-10T07:28:13.400Z,-3.80
2017-12-10T07:30:41.117Z,-3.92
2017-12-10T07:33:08.830Z,-3.86
2017-12-10T07:35:38.281Z,-3.80
2017-12-10T07:38:08.556Z,-3.79
2017-12-10T07:40:36.681Z,-3.78
2017-12-10T07:43:05.215Z,-3.75
2017-12-10T07:45:33.275Z,-3.70
2017-12-10T07:48:01.331Z,-3.64
2017-12-10T07:50:29.094Z,-3.54
2017-12-10T07:52:56.789Z,-3.41
2017-12-10T07:55:24.493Z,-3.35
2017-12-10T07:57:52.289Z,-3.36
2017-12-10T08:00:20.746Z,-3.34
2017-12-10T08:02:49.242Z,-3.33
2017-12-10T08:05:18.748Z,-3.38
2017-12-10T08:07:46.728Z,-3.38
2017-12-10T08:10:14.570Z,-3.36
2017-12-10T08:12:43.180Z,-3.28
2017-12-10T08:15:10.899Z,-3.20
2017-12-10T08:17:38.634Z,-3.16
2017-12-10T08:20:07.994Z,-3.18
2017-12-10T08:22:38.651Z,-3.16
2017-12-10T08:25:08.066Z,-3.11
2017-12-10T08:27:35.877Z,-3.02
2017-12-10T08:30:05.163Z,-2.99
2017-12-10T08:32:34.538Z,-3.04
2017-12-10T08:35:04.008Z,-3.03
2017-12-10T08:37:34.380Z,-3.00
2017-12-10T08:40:04.756Z,-2.91
2017-12-10T08:42:35.120Z,-2.83
2017-12-10T08:45:03.112Z,-2.73
2017-12-10T08:47:30.827Z,-2.62
2017-12-10T08:49:58.596Z,-2.53
2017-12-10T08:52:26.311Z,-2.45
2017-12-10T08:54:54.117Z,-2.33
2017-12-10T08:57:22.765Z,-2.26
2017-12-10T08:59:51.209Z,-2.20
2017-12-10T09:02:18.953Z,-2.16
2017-12-10T09:04:46.670Z,-2.14
2017-12-10T09:07:14.454Z,-2.12
2017-12-10T09:09:43.279Z,-2.12
2017-12-10T09:12:11.698Z,-1.97
2017-12-10T09:14:39.455Z,-1.86
2017-12-10T09:17:07.274Z,-1.78
2017-12-10T09:19:37.599Z,-1.72
2017-12-10T09:22:07.076Z,-1.59
2017-12-10T09:24:37.364Z,-1.54
2017-12-10T09:27:05.912Z,-1.50
2017-12-10T09:29:33.783Z,-1.47
2017-12-10T09:32:01.619Z,-1.42
2017-12-10T09:34:29.867Z,-1.35
2017-12-10T09:36:58.302Z,-1.28
2017-12-10T09:39:25.969Z,-1.25
2017-12-10T09:41:55.498Z,-1.21
2017-12-10T09:44:26.307Z,-1.17
2017-12-10T09:46:54.070Z,-1.10
2017-12-10T09:49:22.454Z,-1.04
2017-12-10T09:51:50.212Z,-1.03
2017-12-10T09:54:18.651Z,-0.99
2017-12-10T09:56:46.303Z,-0.94
2017-12-10T09:59:15.688Z,-0.90
2017-12-10T10:01:43.376Z,-0.87
2017-12-10T10:04:11.103Z,-0.82
2017-12-10T10:06:40.760Z,-0.78
2017-12-10T10:09:08.610Z,-0.74
2017-12-10T10:11:39.840Z,-0.70
2017-12-10T10:14:07.664Z,-0.69
2017-12-10T10:16:37.277Z,-0.71
2017-12-10T10:19:05.069Z,-0.74
2017-12-10T10:21:33.485Z,-0.73
2017-12-10T10:24:02.930Z,-0.76
2017-12-10T10:26:32.279Z,-0.78
2017-12-10T10:29:01.920Z,-0.80
2017-12-10T10:31:30.385Z,-0.82
2017-12-10T10:33:58.142Z,-0.89
2017-12-10T10:36:26.644Z,-0.91
2017-12-10T10:38:54.499Z,-0.90
2017-12-10T10:41:24.859Z,-0.89
2017-12-10T10:43:52.612Z,-0.90
2017-12-10T10:46:22.039Z,-0.92
2017-12-10T10:48:49.949Z,-0.95
2017-12-10T10:51:17.655Z,-0.96
2017-12-10T10:53:48.849Z,-0.98
2017-12-10T10:56:16.701Z,-0.98
2017-12-10T10:58:45.247Z,-0.98
2017-12-10T11:01:13.117Z,-0.96
2017-12-10T11:03:41.701Z,-0.97
2017-12-10T11:06:11.114Z,-0.97
2017-12-10T11:08:38.889Z,-0.96
2017-12-10T11:11:06.557Z,-0.93
2017-12-10T11:13:35.962Z,-0.90
2017-12-10T11:16:05.684Z,-0.86
2017-12-10T11:18:34.242Z,-0.90
2017-12-10T11:21:02.039Z,-0.97
2017-12-10T11:23:32.955Z,-1.00
2017-12-10T11:26:02.612Z,-1.01
2017-12-10T11:28:32.775Z,-1.02
2017-12-10T11:31:03.112Z,-0.97
2017-12-10T11:33:32.803Z,-0.97
2017-12-10T11:36:02.259Z,-0.98
2017-12-10T11:38:30.230Z,-0.96
2017-12-10T11:40:59.646Z,-0.92
2017-12-10T11:43:27.381Z,-0.91
2017-12-10T11:45:55.338Z,-0.90
2017-12-10T11:48:24.787Z,-0.90
2017-12-10T11:50:52.612Z,-0.91
2017-12-10T11:53:22.972Z,-0.90
2017-12-10T11:55:53.275Z,-0.87
2017-12-10T11:58:21.025Z,-0.85
2017-12-10T12:00:48.804Z,-0.85
2017-12-10T12:03:18.241Z,-0.84
2017-12-10T12:05:46.004Z,-0.83
2017-12-10T12:08:15.442Z,-0.83
2017-12-10T12:10:43.339Z,-0.80
2017-12-10T12:13:11.029Z,-0.80
2017-12-10T12:15:40.456Z,-0.78
2017-12-10T12:18:09.016Z,-0.73
2017-12-10T12:20:37.640Z,-0.69
2017-12-10T12:23:08.003Z,-0.70
2017-12-10T12:25:35.790Z,-0.66
2017-12-10T12:28:05.245Z,-0.66
2017-12-10T12:30:35.633Z,-0.67
2017-12-10T12:33:05.505Z,-0.65
2017-12-10T12:35:33.366Z,-0.67
2017-12-10T12:38:04.310Z,-0.71
2017-12-10T12:40:34.160Z,-0.68
2017-12-10T12:43:03.450Z,-0.70
2017-12-10T12:45:33.364Z,-0.72
2017-12-10T12:48:01.056Z,-0.80
2017-12-10T12:50:29.530Z,-0.86
2017-12-10T12:52:58.026Z,-1.03
2017-12-10T12:55:28.600Z,-1.27
2017-12-10T12:57:56.335Z,-1.38
2017-12-10T13:00:26.098Z,-1.50
2017-12-10T13:02:53.822Z,-1.60
2017-12-10T13:05:22.512Z,-1.65
2017-12-10T13:07:50.194Z,-1.74
2017-12-10T13:10:18.716Z,-1.82
2017-12-10T13:12:46.531Z,-1.87
2017-12-10T13:15:14.206Z,-1.91
2017-12-10T13:17:42.655Z,-1.92
2017-12-10T13:20:10.398Z,-1.93
2017-12-10T13:22:38.492Z,-1.91
2017-12-10T13:25:08.812Z,-1.91
2017-12-10T13:27:37.306Z,-1.96
2017-12-10T13:30:06.735Z,-1.95
2017-12-10T13:32:37.979Z,-1.96
2017-12-10T13:35:08.277Z,-1.96
2017-12-10T13:37:36.021Z,-1.95
2017-12-10T13:40:06.293Z,-1.93
2017-12-10T13:42:34.054Z,-1.92
2017-12-10T13:45:01.815Z,-1.91
2017-12-10T13:47:29.576Z,-1.89
2017-12-10T13:49:59.018Z,-1.93
2017-12-10T13:52:26.750Z,-1.96
2017-12-10T13:54:57.178Z,-1.94
2017-12-10T13:57:25.030Z,-1.91
2017-12-10T13:59:52.804Z,-1.92
2017-12-10T14:02:22.022Z,-1.92
2017-12-10T14:04:52.339Z,-1.95
2017-12-10T14:07:21.796Z,-1.95
2017-12-10T14:09:49.604Z,-1.91
2017-12-10T14:12:19.093Z,-1.91
2017-12-10T14:14:46.894Z,-1.90
2017-12-10T14:17:14.898Z,-1.90
2017-12-10T14:19:43.657Z,-1.90
2017-12-10T14:22:11.327Z,-1.91
2017-12-10T14:24:39.054Z,-1.87
2017-12-10T14:27:06.850Z,-1.83
2017-12-10T14:29:34.622Z,-1.80
2017-12-10T14:32:03.954Z,-1.78
2017-12-10T14:34:31.821Z,-1.76
2017-12-10T14:37:00.307Z,-1.74
2017-12-10T14:39:28.054Z,-1.73
2017-12-10T14:41:55.838Z,-1.71
2017-12-10T14:44:23.615Z,-1.68
2017-12-10T14:46:53.199Z,-1.64
2017-12-10T14:49:21.994Z,-1.63
2017-12-10T14:51:51.414Z,-1.61
2017-12-10T14:54:19.274Z,-1.57
2017-12-10T14:56:47.016Z,-1.57
2017-12-10T14:59:16.431Z,-1.52
2017-12-10T15:01:46.032Z,-1.52
2017-12-10T15:04:16.970Z,-1.49
2017-12-10T15:06:46.664Z,-1.47
2017-12-10T15:09:14.545Z,-1.38
2017-12-10T15:11:43.049Z,-1.36
2017-12-10T15:14:12.648Z,-1.38
2017-12-10T15:16:41.469Z,-1.38
2017-12-10T15:19:09.186Z,-1.37
2017-12-10T15:21:38.919Z,-1.36
2017-12-10T15:24:07.411Z,-1.35
2017-12-10T15:26:35.169Z,-1.33
2017-12-10T15:29:04.872Z,-1.31
2017-12-10T15:31:34.355Z,-1.25
2017-12-10T15:34:03.151Z,-1.21
2017-12-10T15:36:31.269Z,-1.15
2017-12-10T15:39:00.258Z,-1.10
2017-12-10T15:41:28.020Z,-1.08
2017-12-10T15:43:58.369Z,-1.07
2017-12-10T15:46:26.102Z,-1.04
2017-12-10T15:48:53.972Z,-0.98
2017-12-10T15:51:21.639Z,-0.95
2017-12-10T15:53:50.146Z,-0.93
2017-12-10T15:56:20.423Z,-0.90
2017-12-10T15:58:48.619Z,-0.87
2017-12-10T16:01:18.117Z,-0.83
2017-12-10T16:03:48.486Z,-0.79
2017-12-10T16:06:18.919Z,-0.75
2017-12-10T16:08:48.368Z,-0.72
2017-12-10T16:11:16.220Z,-0.70
2017-12-10T16:13:46.537Z,-0.68
2017-12-10T16:16:16.157Z,-0.68
2017-12-10T16:18:45.538Z,-0.65
2017-12-10T16:21:13.527Z,-0.61
2017-12-10T16:23:41.489Z,-0.60
2017-12-10T16:26:09.179Z,-0.57
2017-12-10T16:28:36.865Z,-0.55
2017-12-10T16:31:04.792Z,-0.52
2017-12-10T16:33:32.647Z,-0.49
2017-12-10T16:36:01.238Z,-0.46
2017-12-10T16:38:29.075Z,-0.44
2017-12-10T16:40:59.369Z,-0.43
2017-12-10T16:43:29.809Z,-0.41
2017-12-10T16:45:57.711Z,-0.40
2017-12-10T16:48:26.635Z,-0.40
2017-12-10T16:50:54.420Z,-0.35
2017-12-10T16:53:23.243Z,-0.30
2017-12-10T16:55:52.970Z,-0.29
2017-12-10T16:58:21.077Z,-0.26
2017-12-10T17:00:49.052Z,-0.23
2017-12-10T17:03:16.945Z,-0.21
2017-12-10T17:05:44.806Z,-0.22
2017-12-10T17:08:13.679Z,-0.21
2017-12-10T17:10:41.759Z,-0.20
2017-12-10T17:13:11.345Z,-0.20
2017-12-10T17:15:40.933Z,-0.17
2017-12-10T17:18:09.746Z,-0.16
2017-12-10T17:20:37.541Z,-0.14
2017-12-10T17:23:05.545Z,-0.12
2017-12-10T17:25:33.484Z,-0.11
2017-12-10T17:28:05.485Z,-0.08
2017-12-10T17:30:35.117Z,-0.08
2017-12-10T17:33:03.791Z,-0.06
2017-12-10T17:35:31.824Z,-0.03
2017-12-10T17:37:59.814Z,-0.02
2017-12-10T17:40:27.768Z,0.02
2017-12-10T17:42:57.328Z,0.04
2017-12-10T17:45:26.884Z,0.09
2017-12-10T17:47:54.861Z,0.12
2017-12-10T17:50:23.458Z,0.16
2017-12-10T17:52:51.386Z,0.19
2017-12-10T17:55:19.358Z,0.20
2017-12-10T17:57:47.157Z,0.21
2017-12-10T18:00:15.011Z,0.20
2017-12-10T18:02:42.833Z,0.22
2017-12-10T18:05:11.072Z,0.26
2017-12-10T18:07:39.774Z,0.37
2017-12-10T18:10:09.334Z,0.59
2017-12-10T18:12:37.405Z,0.84
2017-12-10T18:15:05.332Z,1.00
2017-12-10T18:17:33.407Z,1.20
2017-12-10T18:20:03.010Z,1.31
2017-12-10T18:22:32.610Z,1.40
2017-12-10T18:25:03.216Z,1.48
2017-12-10T18:27:32.849Z,1.56
2017-12-10T18:30:02.530Z,1.72
2017-12-10T18:32:32.179Z,1.85
2017-12-10T18:35:00.258Z,1.88
2017-12-10T18:37:28.628Z,1.97
2017-12-10T18:39:56.603Z,1.96
2017-12-10T18:42:25.262Z,1.95
2017-12-10T18:44:55.575Z,1.92
2017-12-10T18:47:27.013Z,1.93
2017-12-10T18:49:55.392Z,1.98
2017-12-10T18:52:27.075Z,2.02
2017-12-10T18:54:56.439Z,1.99
2017-12-10T18:57:25.679Z,2.11
2017-12-10T18:59:55.970Z,2.12
2017-12-10T19:02:24.633Z,2.16
2017-12-10T19:04:55.177Z,2.37
2017-12-10T19:07:36.268Z,2.58
2017-12-10T19:10:07.401Z,2.82
2017-12-10T19:12:36.589Z,3.03
2017-12-10T19:15:05.086Z,3.15
2017-12-10T19:17:34.410Z,3.30
2017-12-10T19:20:16.712Z,3.41
2017-12-10T19:22:45.478Z,3.47
2017-12-10T19:25:14.382Z,3.48
2017-12-10T19:27:48.173Z,3.54
2017-12-10T19:30:17.984Z,3.58
2017-12-10T19:32:46.546Z,3.58
2017-12-10T19:35:15.853Z,3.66
2017-12-10T19:37:45.870Z,3.67
2017-12-10T19:40:14.577Z,3.66
2017-12-10T19:42:45.027Z,3.66
2017-12-10T19:45:13.927Z,3.75
2017-12-10T19:47:42.705Z,3.77
2017-12-10T19:50:11.796Z,3.75
2017-12-10T19:52:42.033Z,3.75
2017-12-10T19:55:10.731Z,3.77
2017-12-10T19:57:41.572Z,3.84
2017-12-10T20:00:11.198Z,3.90
2017-12-10T20:02:39.635Z,3.99
2017-12-10T20:05:08.969Z,4.03
2017-12-10T20:07:38.406Z,4.11
2017-12-10T20:10:07.249Z,4.13
2017-12-10T20:12:37.943Z,4.12
2017-12-10T20:15:07.730Z,4.10
2017-12-10T20:20:17.320Z,4.13
2017-12-10T20:22:47.698Z,4.15
2017-12-10T20:25:17.186Z,4.18
2017-12-10T20:27:45.549Z,4.26
2017-12-10T20:30:14.710Z,4.30
2017-12-10T20:32:43.544Z,4.34
2017-12-10T20:35:13.153Z,4.41
2017-12-10T20:37:43.066Z,4.36
2017-12-10T20:40:27.795Z,4.35
2017-12-10T20:42:56.742Z,4.38
2017-12-10T20:45:27.020Z,4.33
2017-12-10T20:47:57.972Z,4.28
2017-12-10T20:50:29.238Z,4.21
2017-12-10T20:52:59.874Z,4.12
2017-12-10T20:55:30.068Z,4.06
2017-12-10T20:58:00.949Z,4.05
2017-12-10T21:00:32.808Z,4.02
2017-12-10T21:03:04.540Z,3.99
2017-12-10T21:05:32.747Z,3.99
2017-12-10T21:08:05.293Z,4.09
2017-12-10T21:10:33.497Z,4.15
2017-12-10T21:13:05.365Z,4.18
2017-12-10T21:15:34.217Z,4.24
2017-12-10T21:18:03.135Z,4.23
2017-12-10T21:20:33.375Z,4.23
2017-12-10T21:23:03.770Z,4.27
2017-12-10T21:25:31.861Z,4.19
2017-12-10T21:28:02.306Z,4.12
2017-12-10T21:30:30.587Z,4.09
2017-12-10T21:32:58.866Z,4.07
2017-12-10T21:35:29.493Z,4.10
2017-12-10T21:37:57.975Z,4.09
2017-12-10T21:40:28.008Z,4.01
2017-12-10T21:42:59.076Z,3.99
2017-12-10T21:45:29.072Z,3.99
2017-12-10T21:47:59.652Z,3.98
2017-12-10T21:50:27.767Z,3.93
2017-12-10T21:52:55.738Z,3.94
2017-12-10T21:55:23.710Z,3.92
2017-12-10T21:57:51.580Z,3.91
2017-12-10T22:00:21.188Z,3.91
2017-12-10T22:02:51.069Z,3.88
2017-12-10T22:05:20.689Z,3.93
2017-12-10T22:07:50.280Z,3.93
2017-12-10T22:10:18.313Z,3.92
2017-12-10T22:12:46.168Z,3.89
2017-12-10T22:15:14.190Z,3.85
2017-12-10T22:17:42.208Z,3.91
2017-12-10T22:20:14.910Z,3.91
2017-12-10T22:22:44.413Z,3.95
2017-12-10T22:25:15.441Z,4.04
2017-12-10T22:27:43.412Z,4.13
2017-12-10T22:30:11.398Z,4.19
2017-12-10T22:32:39.466Z,4.40
2017-12-10T22:35:07.443Z,4.42
2017-12-10T22:37:35.412Z,4.40
2017-12-10T22:40:09.737Z,4.37
2017-12-10T22:42:37.974Z,4.29
2017-12-10T22:45:06.183Z,4.23
2017-12-10T22:47:35.677Z,4.29
2017-12-10T22:50:03.760Z,4.28
2017-12-10T22:52:31.734Z,4.29
2017-12-10T22:54:59.719Z,4.30
2017-12-10T22:57:29.784Z,4.24
2017-12-10T22:59:57.808Z,4.19
2017-12-10T23:02:25.775Z,4.11
2017-12-10T23:04:55.338Z,4.00
2017-12-10T23:07:25.911Z,3.92
2017-12-10T23:09:53.892Z,3.89
2017-12-10T23:12:21.837Z,3.80
2017-12-10T23:14:50.352Z,3.79
2017-12-10T23:17:20.025Z,3.75
2017-12-10T23:19:48.034Z,3.72
2017-12-10T23:22:17.851Z,3.62
2017-12-10T23:24:47.462Z,3.57
2017-12-10T23:27:15.598Z,3.54
2017-12-10T23:29:43.613Z,3.54
2017-12-10T23:32:12.097Z,3.49
2017-12-10T23:34:40.097Z,3.42
2017-12-10T23:37:08.036Z,3.34
2017-12-10T23:39:37.512Z,3.27
2017-12-10T23:42:05.725Z,3.22
2017-12-10T23:44:33.798Z,3.17
2017-12-10T23:47:01.675Z,3.14
2017-12-10T23:49:29.754Z,3.11
2017-12-10T23:51:57.812Z,3.08
2017-12-10T23:54:25.705Z,3.09
2017-12-10T23:56:55.400Z,3.06
2017-12-10T23:59:23.394Z,3.06
